sensor_id;sensor_type;location;lat;lon;timestamp;temperature;humidity
16968;DHT22;64862;54.398;10.126;2024-02-26T00:08:12;4.60;99.90
16968;DHT22;64862;54.398;10.126;2024-02-26T00:18:16;4.50;99.90
16968;DHT22;64862;54.398;10.126;2024-02-26T00:28:17;4.40;99.90
16968;DHT22;64862;54.398;10.126;2024-02-26T00:38:22;4.40;99.90
16968;DHT22;64862;54.398;10.126;2024-02-26T00:48:24;4.20;99.90
16968;DHT22;64862;54.398;10.126;2024-02-26T00:58:28;4.30;99.90
16968;DHT22;64862;54.398;10.126;2024-02-26T01:08:30;4.20;99.90
16968;DHT22;64862;54.398;10.126;2024-02-26T01:18:34;4.20;99.90
16968;DHT22;64862;54.398;10.126;2024-02-26T01:28:36;4.10;99.90
16968;DHT22;64862;54.398;10.126;2024-02-26T01:38:40;4.10;99.90
16968;DHT22;64862;54.398;10.126;2024-02-26T01:48:43;3.80;99.90
16968;DHT22;64862;54.398;10.126;2024-02-26T01:58:48;3.60;99.90
16968;DHT22;64862;54.398;10.126;2024-02-26T02:08:51;3.90;99.90
16968;DHT22;64862;54.398;10.126;2024-02-26T02:18:54;4.10;99.90
16968;DHT22;64862;54.398;10.126;2024-02-26T02:28:59;4.30;99.90
16968;DHT22;64862;54.398;10.126;2024-02-26T02:39:01;4.30;99.90
16968;DHT22;64862;54.398;10.126;2024-02-26T02:49:08;3.60;99.90
16968;DHT22;64862;54.398;10.126;2024-02-26T02:59:10;3.60;99.90
16968;DHT22;64862;54.398;10.126;2024-02-26T03:09:14;3.70;99.90
16968;DHT22;64862;54.398;10.126;2024-02-26T03:19:16;3.90;99.90
16968;DHT22;64862;54.398;10.126;2024-02-26T03:29:20;4.00;99.90
16968;DHT22;64862;54.398;10.126;2024-02-26T03:39:22;3.90;99.90
16968;DHT22;64862;54.398;10.126;2024-02-26T03:49:25;3.70;99.90
16968;DHT22;64862;54.398;10.126;2024-02-26T03:59:27;3.70;99.90
16968;DHT22;64862;54.398;10.126;2024-02-26T04:09:32;3.60;99.90
16968;DHT22;64862;54.398;10.126;2024-02-26T04:19:34;3.70;99.90
16968;DHT22;64862;54.398;10.126;2024-02-26T04:29:38;3.50;99.90
16968;DHT22;64862;54.398;10.126;2024-02-26T04:39:40;3.50;99.90
16968;DHT22;64862;54.398;10.126;2024-02-26T04:49:44;3.40;99.90
16968;DHT22;64862;54.398;10.126;2024-02-26T04:59:46;3.40;99.90
16968;DHT22;64862;54.398;10.126;2024-02-26T05:09:49;3.20;99.90
16968;DHT22;64862;54.398;10.126;2024-02-26T05:19:51;3.50;99.90
16968;DHT22;64862;54.398;10.126;2024-02-26T05:29:55;3.20;99.90
16968;DHT22;64862;54.398;10.126;2024-02-26T05:39:59;3.30;99.90
16968;DHT22;64862;54.398;10.126;2024-02-26T05:50:02;3.00;99.90
16968;DHT22;64862;54.398;10.126;2024-02-26T06:00:06;3.00;99.90
16968;DHT22;64862;54.398;10.126;2024-02-26T06:10:15;3.00;99.90
16968;DHT22;64862;54.398;10.126;2024-02-26T06:20:17;3.00;99.90
16968;DHT22;64862;54.398;10.126;2024-02-26T06:30:21;2.90;99.90
16968;DHT22;64862;54.398;10.126;2024-02-26T06:40:23;3.20;99.90
16968;DHT22;64862;54.398;10.126;2024-02-26T06:50:27;3.50;99.90
16968;DHT22;64862;54.398;10.126;2024-02-26T07:00:29;3.90;99.90
16968;DHT22;64862;54.398;10.126;2024-02-26T07:10:33;4.00;99.90
16968;DHT22;64862;54.398;10.126;2024-02-26T07:20:35;4.00;99.90
16968;DHT22;64862;54.398;10.126;2024-02-26T07:30:38;4.20;99.90
16968;DHT22;64862;54.398;10.126;2024-02-26T07:40:41;4.20;99.90
16968;DHT22;64862;54.398;10.126;2024-02-26T07:50:44;4.20;99.90
16968;DHT22;64862;54.398;10.126;2024-02-26T08:00:46;4.10;99.90
16968;DHT22;64862;54.398;10.126;2024-02-26T08:10:51;4.10;99.90
16968;DHT22;64862;54.398;10.126;2024-02-26T08:20:53;4.30;99.90
16968;DHT22;64862;54.398;10.126;2024-02-26T08:30:56;4.50;99.90
16968;DHT22;64862;54.398;10.126;2024-02-26T08:40:59;4.60;99.90
16968;DHT22;64862;54.398;10.126;2024-02-26T08:51:06;4.90;99.90
16968;DHT22;64862;54.398;10.126;2024-02-26T09:01:12;4.90;99.90
16968;DHT22;64862;54.398;10.126;2024-02-26T09:11:16;5.00;99.90
16968;DHT22;64862;54.398;10.126;2024-02-26T09:21:18;5.10;99.90
16968;DHT22;64862;54.398;10.126;2024-02-26T09:31:25;5.00;99.90
16968;DHT22;64862;54.398;10.126;2024-02-26T09:41:28;5.00;99.90
16968;DHT22;64862;54.398;10.126;2024-02-26T09:51:33;5.20;99.90
16968;DHT22;64862;54.398;10.126;2024-02-26T10:01:35;5.20;99.90
16968;DHT22;64862;54.398;10.126;2024-02-26T10:11:40;5.30;99.90
16968;DHT22;64862;54.398;10.126;2024-02-26T10:21:43;5.50;99.90
16968;DHT22;64862;54.398;10.126;2024-02-26T10:31:47;5.60;99.90
16968;DHT22;64862;54.398;10.126;2024-02-26T10:41:50;5.70;99.90
16968;DHT22;64862;54.398;10.126;2024-02-26T10:51:55;5.70;99.90
16968;DHT22;64862;54.398;10.126;2024-02-26T11:01:58;5.80;99.90
16968;DHT22;64862;54.398;10.126;2024-02-26T11:12:02;5.90;99.90
16968;DHT22;64862;54.398;10.126;2024-02-26T11:22:10;5.90;99.90
16968;DHT22;64862;54.398;10.126;2024-02-26T11:32:14;6.00;99.90
16968;DHT22;64862;54.398;10.126;2024-02-26T11:42:16;6.10;99.90
16968;DHT22;64862;54.398;10.126;2024-02-26T11:52:20;6.20;99.90
16968;DHT22;64862;54.398;10.126;2024-02-26T12:02:46;6.30;99.90
16968;DHT22;64862;54.398;10.126;2024-02-26T12:12:53;6.30;99.90
16968;DHT22;64862;54.398;10.126;2024-02-26T12:22:56;6.50;99.90
16968;DHT22;64862;54.398;10.126;2024-02-26T12:32:59;6.50;99.90
16968;DHT22;64862;54.398;10.126;2024-02-26T12:43:02;6.60;99.90
16968;DHT22;64862;54.398;10.126;2024-02-26T12:53:06;6.70;99.90
16968;DHT22;64862;54.398;10.126;2024-02-26T13:03:08;6.70;99.90
16968;DHT22;64862;54.398;10.126;2024-02-26T13:13:15;6.70;99.90
16968;DHT22;64862;54.398;10.126;2024-02-26T13:23:18;6.60;99.90
16968;DHT22;64862;54.398;10.126;2024-02-26T13:33:22;6.60;99.90
16968;DHT22;64862;54.398;10.126;2024-02-26T13:43:24;6.70;99.90
16968;DHT22;64862;54.398;10.126;2024-02-26T13:53:28;6.80;99.90
16968;DHT22;64862;54.398;10.126;2024-02-26T14:03:30;6.80;99.90
16968;DHT22;64862;54.398;10.126;2024-02-26T14:13:33;6.80;99.90
16968;DHT22;64862;54.398;10.126;2024-02-26T14:23:35;6.70;99.90
16968;DHT22;64862;54.398;10.126;2024-02-26T14:33:39;6.70;99.90
16968;DHT22;64862;54.398;10.126;2024-02-26T14:43:41;6.80;99.90
16968;DHT22;64862;54.398;10.126;2024-02-26T14:53:45;6.80;99.90
16968;DHT22;64862;54.398;10.126;2024-02-26T15:03:47;6.70;99.90
16968;DHT22;64862;54.398;10.126;2024-02-26T15:13:50;6.60;99.90
16968;DHT22;64862;54.398;10.126;2024-02-26T15:23:53;6.70;99.90
16968;DHT22;64862;54.398;10.126;2024-02-26T15:33:56;6.60;99.90
16968;DHT22;64862;54.398;10.126;2024-02-26T15:43:58;6.50;99.90
16968;DHT22;64862;54.398;10.126;2024-02-26T15:54:02;6.50;99.90
16968;DHT22;64862;54.398;10.126;2024-02-26T16:04:04;6.40;99.90
16968;DHT22;64862;54.398;10.126;2024-02-26T16:14:12;6.40;99.90
16968;DHT22;64862;54.398;10.126;2024-02-26T16:24:18;6.40;99.90
16968;DHT22;64862;54.398;10.126;2024-02-26T16:34:22;6.40;99.90
16968;DHT22;64862;54.398;10.126;2024-02-26T16:44:24;6.30;99.90
16968;DHT22;64862;54.398;10.126;2024-02-26T16:54:28;6.30;99.90
16968;DHT22;64862;54.398;10.126;2024-02-26T17:04:30;6.20;99.90
16968;DHT22;64862;54.398;10.126;2024-02-26T17:14:34;6.10;99.90
16968;DHT22;64862;54.398;10.126;2024-02-26T17:24:36;6.10;99.90
16968;DHT22;64862;54.398;10.126;2024-02-26T17:34:40;6.00;99.90
16968;DHT22;64862;54.398;10.126;2024-02-26T17:44:42;6.00;99.90
16968;DHT22;64862;54.398;10.126;2024-02-26T17:54:46;6.00;99.90
16968;DHT22;64862;54.398;10.126;2024-02-26T18:04:48;5.80;99.90
16968;DHT22;64862;54.398;10.126;2024-02-26T18:14:51;5.70;99.90
16968;DHT22;64862;54.398;10.126;2024-02-26T18:24:53;5.70;99.90
16968;DHT22;64862;54.398;10.126;2024-02-26T18:34:58;5.60;99.90
16968;DHT22;64862;54.398;10.126;2024-02-26T18:45:00;5.50;99.90
16968;DHT22;64862;54.398;10.126;2024-02-26T18:55:04;5.40;99.90
16968;DHT22;64862;54.398;10.126;2024-02-26T19:05:07;5.30;99.90
16968;DHT22;64862;54.398;10.126;2024-02-26T19:15:11;5.30;99.90
16968;DHT22;64862;54.398;10.126;2024-02-26T19:25:17;5.30;99.90
16968;DHT22;64862;54.398;10.126;2024-02-26T19:35:21;5.40;99.90
16968;DHT22;64862;54.398;10.126;2024-02-26T19:45:23;5.40;99.90
16968;DHT22;64862;54.398;10.126;2024-02-26T19:55:27;5.50;99.90
16968;DHT22;64862;54.398;10.126;2024-02-26T20:05:29;5.60;99.90
16968;DHT22;64862;54.398;10.126;2024-02-26T20:15:33;5.70;99.90
16968;DHT22;64862;54.398;10.126;2024-02-26T20:25:35;5.60;99.90
16968;DHT22;64862;54.398;10.126;2024-02-26T20:35:39;5.60;99.90
16968;DHT22;64862;54.398;10.126;2024-02-26T20:45:41;5.60;99.90
16968;DHT22;64862;54.398;10.126;2024-02-26T20:55:51;5.60;99.90
16968;DHT22;64862;54.398;10.126;2024-02-26T21:05:54;5.70;99.90
16968;DHT22;64862;54.398;10.126;2024-02-26T21:15:58;5.80;99.90
16968;DHT22;64862;54.398;10.126;2024-02-26T21:26:00;5.80;99.90
16968;DHT22;64862;54.398;10.126;2024-02-26T21:36:04;5.80;99.90
16968;DHT22;64862;54.398;10.126;2024-02-26T21:46:06;5.70;99.90
16968;DHT22;64862;54.398;10.126;2024-02-26T21:56:09;5.60;99.90
16968;DHT22;64862;54.398;10.126;2024-02-26T22:06:12;5.60;99.90
16968;DHT22;64862;54.398;10.126;2024-02-26T22:16:15;5.60;99.90
16968;DHT22;64862;54.398;10.126;2024-02-26T22:26:17;5.60;99.90
16968;DHT22;64862;54.398;10.126;2024-02-26T22:36:21;5.60;99.90
16968;DHT22;64862;54.398;10.126;2024-02-26T22:46:23;5.50;99.90
16968;DHT22;64862;54.398;10.126;2024-02-26T22:56:27;5.50;99.90
16968;DHT22;64862;54.398;10.126;2024-02-26T23:06:29;5.40;99.90
16968;DHT22;64862;54.398;10.126;2024-02-26T23:16:33;5.50;99.90
16968;DHT22;64862;54.398;10.126;2024-02-26T23:26:37;5.60;99.90
16968;DHT22;64862;54.398;10.126;2024-02-26T23:36:40;5.60;99.90
16968;DHT22;64862;54.398;10.126;2024-02-26T23:46:42;5.60;99.90
16968;DHT22;64862;54.398;10.126;2024-02-26T23:56:46;5.50;99.90
